Airfield :







YOU CAN JOIN US ON...

 
LOGIN :

Register | Disclaimer

   EN    FR    IT 

 









Legend :    VFR   Marginal VFR   IFR   Intensive IFR   Very Intensive IFR
Visi :
Ceiling :
>= 8 km
>= 3000ft
5 to 8 km
1000 to 3000 ft
1500m to 5 km
500 to 1000 ft
800 to 1500m
200 to 500 ft
< 800m
< 200 ft
Symbols :   Thunderstorms  Fog  Heavy snow  Heavy precipitations  Wind > 20 kt






- Airport Elevation : 930 ft


KEFK - Newport State

CURRENT METAR :
  • 092117Z AUTO 20006KT 10SM DZ BKN014 OVC020 03/03 A2974 RMK AO2 T00310030

EXPIRED METARs :
  • 092056Z AUTO 19005KT 10SM DZ BKN022 OVC027 04/03 A2975 RMK AO2 T00350033
  • 092036Z AUTO 20003KT 10SM SCT014 OVC027 03/03 A2977 RMK AO2 T00320031
  • 092016Z AUTO 17007KT 10SM OVC014 03/03 A2979 RMK AO2 T00310031
  • 091957Z AUTO 19003KT 10SM -DZ SCT010 OVC017 03/03 A2981 RMK AO2 T00280027
  • 091936Z AUTO 19003KT 10SM DZ BKN019 OVC024 03/03 A2983 RMK AO2 T00300028
  • 091916Z AUTO 19003KT 10SM DZ OVC017 03/03 A2984 RMK AO2 T00300025
  • 091855Z AUTO 16006KT 10SM DZ SCT015 BKN039 OVC047 03/03 A2986 RMK AO2 T00340025
  • 091837Z AUTO 17007KT 10SM -DZ SCT041 BKN046 OVC075 04/03 A2988 RMK AO2 T00350025

TAF N/A



MET'MAP, your aeronautical weather chart ! - Copyright ORBIFLY December 2007 - Disclaimer

ORBIFLY MET'MAP TEAM :

Programming & Development : Alexandra Zaïnal
Concept & original design : Baudouin d'Aumeries
Assistance for programming : Marc-Olivier Méhu
Technical & hardware support : Manuel Goepfert

Contact : metmap@orbifly.com




SOURCES & CREDITS :

   NOAA